sensor_id;sensor_type;location;lat;lon;timestamp;pressure;altitude;pressure_sealevel;temperature;humidity
16664;BME280;8445;51.270;9.434;2023-12-04T00:01:50;99775.13;;;-0.23;72.96
16664;BME280;8445;51.270;9.434;2023-12-04T00:04:15;99760.59;;;-0.27;73.13
16664;BME280;8445;51.270;9.434;2023-12-04T00:06:42;99765.25;;;-0.20;72.56
16664;BME280;8445;51.270;9.434;2023-12-04T00:09:08;99748.56;;;-0.30;72.67
16664;BME280;8445;51.270;9.434;2023-12-04T00:11:34;99756.69;;;-0.22;72.67
16664;BME280;8445;51.270;9.434;2023-12-04T00:14:00;99743.97;;;-0.26;72.85
16664;BME280;8445;51.270;9.434;2023-12-04T00:16:26;99737.16;;;-0.29;72.64
16664;BME280;8445;51.270;9.434;2023-12-04T00:18:52;99729.09;;;-0.26;72.36
16664;BME280;8445;51.270;9.434;2023-12-04T00:21:18;99729.44;;;-0.19;72.92
16664;BME280;8445;51.270;9.434;2023-12-04T00:23:44;99716.94;;;-0.27;73.00
16664;BME280;8445;51.270;9.434;2023-12-04T00:26:10;99731.72;;;-0.15;72.55
16664;BME280;8445;51.270;9.434;2023-12-04T00:28:36;99724.59;;;-0.13;72.80
16664;BME280;8445;51.270;9.434;2023-12-04T00:31:04;99701.38;;;-0.17;72.59
16664;BME280;8445;51.270;9.434;2023-12-04T00:33:30;99702.69;;;-0.12;72.93
16664;BME280;8445;51.270;9.434;2023-12-04T00:35:57;99699.97;;;-0.10;72.52
16664;BME280;8445;51.270;9.434;2023-12-04T00:38:23;99675.44;;;-0.20;72.87
16664;BME280;8445;51.270;9.434;2023-12-04T00:40:49;99680.44;;;-0.17;72.23
16664;BME280;8445;51.270;9.434;2023-12-04T00:43:14;99688.03;;;-0.14;72.51
16664;BME280;8445;51.270;9.434;2023-12-04T00:45:40;99664.25;;;-0.22;72.08
16664;BME280;8445;51.270;9.434;2023-12-04T00:48:06;99658.31;;;-0.24;72.67
16664;BME280;8445;51.270;9.434;2023-12-04T00:50:32;99667.72;;;-0.22;72.38
16664;BME280;8445;51.270;9.434;2023-12-04T00:52:58;99680.94;;;-0.12;72.70
16664;BME280;8445;51.270;9.434;2023-12-04T00:55:24;99684.13;;;-0.09;71.87
16664;BME280;8445;51.270;9.434;2023-12-04T00:57:50;99665.81;;;-0.20;71.88
16664;BME280;8445;51.270;9.434;2023-12-04T01:00:16;99657.00;;;-0.19;71.72
16664;BME280;8445;51.270;9.434;2023-12-04T01:02:42;99672.13;;;-0.11;71.83
16664;BME280;8445;51.270;9.434;2023-12-04T01:05:08;99662.22;;;-0.19;71.72
16664;BME280;8445;51.270;9.434;2023-12-04T01:07:34;99659.50;;;-0.17;71.72
16664;BME280;8445;51.270;9.434;2023-12-04T01:10:00;99671.16;;;-0.10;71.63
16664;BME280;8445;51.270;9.434;2023-12-04T01:12:26;99676.66;;;-0.13;71.44
16664;BME280;8445;51.270;9.434;2023-12-04T01:14:52;99665.81;;;-0.09;71.42
16664;BME280;8445;51.270;9.434;2023-12-04T01:17:18;99646.91;;;-0.23;71.50
16664;BME280;8445;51.270;9.434;2023-12-04T01:19:44;99639.03;;;-0.23;71.19
16664;BME280;8445;51.270;9.434;2023-12-04T01:22:10;99641.53;;;-0.22;71.66
16664;BME280;8445;51.270;9.434;2023-12-04T01:24:36;99642.25;;;-0.20;71.52
16664;BME280;8445;51.270;9.434;2023-12-04T01:27:02;99643.78;;;-0.17;71.17
16664;BME280;8445;51.270;9.434;2023-12-04T01:29:28;99643.78;;;-0.17;71.02
16664;BME280;8445;51.270;9.434;2023-12-04T01:31:54;99632.50;;;-0.18;71.29
16664;BME280;8445;51.270;9.434;2023-12-04T01:34:20;99636.88;;;-0.18;70.98
16664;BME280;8445;51.270;9.434;2023-12-04T01:36:46;99647.25;;;-0.06;71.01
16664;BME280;8445;51.270;9.434;2023-12-04T01:39:12;99653.44;;;-0.07;71.13
16664;BME280;8445;51.270;9.434;2023-12-04T01:41:38;99624.03;;;-0.21;70.94
16664;BME280;8445;51.270;9.434;2023-12-04T01:44:04;99629.88;;;-0.18;70.59
16664;BME280;8445;51.270;9.434;2023-12-04T01:46:30;99642.25;;;-0.09;70.63
16664;BME280;8445;51.270;9.434;2023-12-04T01:48:56;99627.75;;;-0.13;70.42
16664;BME280;8445;51.270;9.434;2023-12-04T01:51:23;99627.00;;;-0.15;70.44
16664;BME280;8445;51.270;9.434;2023-12-04T01:53:50;99641.31;;;-0.08;70.55
16664;BME280;8445;51.270;9.434;2023-12-04T01:56:17;99608.22;;;-0.20;70.13
16664;BME280;8445;51.270;9.434;2023-12-04T01:58:44;99623.22;;;-0.11;70.52
16664;BME280;8445;51.270;9.434;2023-12-04T02:01:11;99611.56;;;-0.18;70.36
16664;BME280;8445;51.270;9.434;2023-12-04T02:03:37;99629.16;;;-0.09;70.12
16664;BME280;8445;51.270;9.434;2023-12-04T02:06:04;99609.19;;;-0.21;69.92
16664;BME280;8445;51.270;9.434;2023-12-04T02:08:31;99635.59;;;-0.13;70.37
16664;BME280;8445;51.270;9.434;2023-12-04T02:10:57;99628.66;;;-0.14;70.46
16664;BME280;8445;51.270;9.434;2023-12-04T02:13:23;99606.69;;;-0.22;70.13
16664;BME280;8445;51.270;9.434;2023-12-04T02:15:53;99616.53;;;-0.15;70.38
16664;BME280;8445;51.270;9.434;2023-12-04T02:18:20;99613.22;;;-0.17;70.43
16664;BME280;8445;51.270;9.434;2023-12-04T02:20:48;99619.16;;;-0.15;70.59
16664;BME280;8445;51.270;9.434;2023-12-04T02:23:14;99613.47;;;-0.20;70.13
16664;BME280;8445;51.270;9.434;2023-12-04T02:25:40;99601.19;;;-0.31;70.37
16664;BME280;8445;51.270;9.434;2023-12-04T02:28:11;99602.41;;;-0.23;70.50
16664;BME280;8445;51.270;9.434;2023-12-04T02:30:43;99603.69;;;-0.29;70.15
16664;BME280;8445;51.270;9.434;2023-12-04T02:33:11;99607.28;;;-0.19;70.09
16664;BME280;8445;51.270;9.434;2023-12-04T02:35:40;99602.03;;;-0.30;70.35
16664;BME280;8445;51.270;9.434;2023-12-04T02:38:08;99586.69;;;-0.35;70.70
16664;BME280;8445;51.270;9.434;2023-12-04T02:40:34;99591.22;;;-0.37;70.24
16664;BME280;8445;51.270;9.434;2023-12-04T02:43:00;99596.56;;;-0.38;70.45
16664;BME280;8445;51.270;9.434;2023-12-04T02:45:26;99593.34;;;-0.42;70.34
16664;BME280;8445;51.270;9.434;2023-12-04T02:47:52;99604.19;;;-0.35;70.52
16664;BME280;8445;51.270;9.434;2023-12-04T02:50:18;99578.97;;;-0.47;70.76
16664;BME280;8445;51.270;9.434;2023-12-04T02:52:44;99585.63;;;-0.43;70.48
16664;BME280;8445;51.270;9.434;2023-12-04T02:55:10;99555.78;;;-0.63;70.54
16664;BME280;8445;51.270;9.434;2023-12-04T02:57:36;99577.28;;;-0.48;70.33
16664;BME280;8445;51.270;9.434;2023-12-04T03:00:01;99549.00;;;-0.66;70.72
16664;BME280;8445;51.270;9.434;2023-12-04T03:02:29;99584.69;;;-0.53;70.89
16664;BME280;8445;51.270;9.434;2023-12-04T03:04:55;99565.75;;;-0.57;71.12
16664;BME280;8445;51.270;9.434;2023-12-04T03:07:21;99562.41;;;-0.70;71.10
16664;BME280;8445;51.270;9.434;2023-12-04T03:09:48;99502.59;;;-0.97;70.97
16664;BME280;8445;51.270;9.434;2023-12-04T03:12:14;99563.38;;;-0.71;70.88
16664;BME280;8445;51.270;9.434;2023-12-04T03:14:40;99555.38;;;-0.81;70.92
16664;BME280;8445;51.270;9.434;2023-12-04T03:17:06;99540.66;;;-0.93;70.96
16664;BME280;8445;51.270;9.434;2023-12-04T03:19:32;99548.00;;;-0.98;71.10
16664;BME280;8445;51.270;9.434;2023-12-04T03:21:58;99546.81;;;-1.05;70.93
16664;BME280;8445;51.270;9.434;2023-12-04T03:24:23;99562.97;;;-1.00;71.54
16664;BME280;8445;51.270;9.434;2023-12-04T03:26:49;99547.00;;;-1.08;71.14
16664;BME280;8445;51.270;9.434;2023-12-04T03:29:15;99546.06;;;-1.18;71.44
16664;BME280;8445;51.270;9.434;2023-12-04T03:31:41;99531.06;;;-1.28;71.78
16664;BME280;8445;51.270;9.434;2023-12-04T03:34:07;99542.94;;;-1.24;71.98
16664;BME280;8445;51.270;9.434;2023-12-04T03:36:33;99551.72;;;-1.25;72.04
16664;BME280;8445;51.270;9.434;2023-12-04T03:38:59;99544.97;;;-1.27;72.19
16664;BME280;8445;51.270;9.434;2023-12-04T03:41:25;99520.56;;;-1.39;72.08
16664;BME280;8445;51.270;9.434;2023-12-04T03:43:50;99530.59;;;-1.33;72.24
16664;BME280;8445;51.270;9.434;2023-12-04T03:46:16;99517.25;;;-1.41;72.29
16664;BME280;8445;51.270;9.434;2023-12-04T03:48:42;99538.06;;;-1.28;72.46
16664;BME280;8445;51.270;9.434;2023-12-04T03:51:08;99525.34;;;-1.33;72.34
16664;BME280;8445;51.270;9.434;2023-12-04T03:53:34;99529.16;;;-1.26;72.23
16664;BME280;8445;51.270;9.434;2023-12-04T03:56:00;99516.78;;;-1.35;72.41
16664;BME280;8445;51.270;9.434;2023-12-04T03:58:26;99503.94;;;-1.38;72.42
16664;BME280;8445;51.270;9.434;2023-12-04T04:00:52;99523.81;;;-1.24;72.17
16664;BME280;8445;51.270;9.434;2023-12-04T04:03:18;99512.66;;;-1.26;72.25
16664;BME280;8445;51.270;9.434;2023-12-04T04:05:44;99520.13;;;-1.22;72.11
16664;BME280;8445;51.270;9.434;2023-12-04T04:08:10;99489.94;;;-1.37;72.38
16664;BME280;8445;51.270;9.434;2023-12-04T04:10:38;99496.84;;;-1.25;72.15
16664;BME280;8445;51.270;9.434;2023-12-04T04:13:04;99489.63;;;-1.32;72.53
16664;BME280;8445;51.270;9.434;2023-12-04T04:15:30;99502.59;;;-1.20;72.30
16664;BME280;8445;51.270;9.434;2023-12-04T04:17:56;99486.16;;;-1.33;72.40
16664;BME280;8445;51.270;9.434;2023-12-04T04:20:22;99498.19;;;-1.19;72.09
16664;BME280;8445;51.270;9.434;2023-12-04T04:22:48;99496.53;;;-1.20;72.44
16664;BME280;8445;51.270;9.434;2023-12-04T04:25:15;99492.63;;;-1.14;72.46
16664;BME280;8445;51.270;9.434;2023-12-04T04:27:41;99499.75;;;-1.16;72.32
16664;BME280;8445;51.270;9.434;2023-12-04T04:30:07;99505.44;;;-1.11;72.28
16664;BME280;8445;51.270;9.434;2023-12-04T04:32:34;99486.09;;;-1.20;72.67
16664;BME280;8445;51.270;9.434;2023-12-04T04:35:00;99496.53;;;-1.09;72.46
16664;BME280;8445;51.270;9.434;2023-12-04T04:37:26;99495.69;;;-1.09;72.42
16664;BME280;8445;51.270;9.434;2023-12-04T04:39:52;99491.31;;;-1.09;71.98
16664;BME280;8445;51.270;9.434;2023-12-04T04:42:17;99496.91;;;-1.02;71.96
16664;BME280;8445;51.270;9.434;2023-12-04T04:44:43;99468.84;;;-1.11;72.17
16664;BME280;8445;51.270;9.434;2023-12-04T04:47:09;99485.50;;;-1.01;71.91
16664;BME280;8445;51.270;9.434;2023-12-04T04:49:35;99485.25;;;-0.98;71.97
16664;BME280;8445;51.270;9.434;2023-12-04T04:52:01;99470.06;;;-1.04;72.03
16664;BME280;8445;51.270;9.434;2023-12-04T04:55:02;99474.81;;;-0.98;71.81
16664;BME280;8445;51.270;9.434;2023-12-04T04:57:30;99469.81;;;-1.01;71.81
16664;BME280;8445;51.270;9.434;2023-12-04T04:59:56;99477.19;;;-0.95;71.74
16664;BME280;8445;51.270;9.434;2023-12-04T05:02:21;99421.09;;;-1.25;71.90
16664;BME280;8445;51.270;9.434;2023-12-04T05:04:47;99465.78;;;-0.94;71.84
16664;BME280;8445;51.270;9.434;2023-12-04T05:07:13;99449.75;;;-1.01;71.94
16664;BME280;8445;51.270;9.434;2023-12-04T05:09:39;99447.97;;;-1.00;72.04
16664;BME280;8445;51.270;9.434;2023-12-04T05:12:06;99448.78;;;-1.00;71.82
16664;BME280;8445;51.270;9.434;2023-12-04T05:14:32;99467.22;;;-0.90;71.77
16664;BME280;8445;51.270;9.434;2023-12-04T05:16:57;99465.06;;;-0.85;71.66
16664;BME280;8445;51.270;9.434;2023-12-04T05:19:23;99437.13;;;-0.96;71.74
16664;BME280;8445;51.270;9.434;2023-12-04T05:21:49;99428.00;;;-1.01;71.64
16664;BME280;8445;51.270;9.434;2023-12-04T05:24:15;99435.13;;;-0.92;71.43
16664;BME280;8445;51.270;9.434;2023-12-04T05:26:41;99431.56;;;-0.91;71.69
16664;BME280;8445;51.270;9.434;2023-12-04T05:29:07;99453.19;;;-0.78;71.46
16664;BME280;8445;51.270;9.434;2023-12-04T05:31:33;99459.25;;;-0.77;71.73
16664;BME280;8445;51.270;9.434;2023-12-04T05:33:58;99435.59;;;-0.87;71.76
16664;BME280;8445;51.270;9.434;2023-12-04T05:36:24;99452.38;;;-0.78;71.72
16664;BME280;8445;51.270;9.434;2023-12-04T05:38:50;99445.81;;;-0.84;71.43
16664;BME280;8445;51.270;9.434;2023-12-04T05:41:19;99442.25;;;-0.83;71.66
16664;BME280;8445;51.270;9.434;2023-12-04T05:43:45;99443.44;;;-0.76;71.78
16664;BME280;8445;51.270;9.434;2023-12-04T05:46:11;99452.81;;;-0.73;71.37
16664;BME280;8445;51.270;9.434;2023-12-04T05:48:37;99446.88;;;-0.75;71.70
16664;BME280;8445;51.270;9.434;2023-12-04T05:51:03;99435.09;;;-0.81;71.55
16664;BME280;8445;51.270;9.434;2023-12-04T05:53:29;99448.44;;;-0.73;71.14
16664;BME280;8445;51.270;9.434;2023-12-04T05:55:55;99428.47;;;-0.85;71.82
16664;BME280;8445;51.270;9.434;2023-12-04T05:58:20;99446.78;;;-0.74;71.62
16664;BME280;8445;51.270;9.434;2023-12-04T06:00:46;99439.03;;;-0.75;71.38
16664;BME280;8445;51.270;9.434;2023-12-04T06:03:12;99425.84;;;-0.85;71.53
16664;BME280;8445;51.270;9.434;2023-12-04T06:05:38;99422.53;;;-0.87;71.44
16664;BME280;8445;51.270;9.434;2023-12-04T06:08:04;99419.91;;;-0.87;71.48
16664;BME280;8445;51.270;9.434;2023-12-04T06:10:30;99425.84;;;-0.85;71.27
16664;BME280;8445;51.270;9.434;2023-12-04T06:12:56;99435.34;;;-0.84;71.26
16664;BME280;8445;51.270;9.434;2023-12-04T06:15:22;99438.91;;;-0.74;71.11
16664;BME280;8445;51.270;9.434;2023-12-04T06:17:48;99412.56;;;-0.93;71.42
16664;BME280;8445;51.270;9.434;2023-12-04T06:20:14;99443.44;;;-0.76;71.31
16664;BME280;8445;51.270;9.434;2023-12-04T06:22:41;99410.41;;;-0.88;71.44
16664;BME280;8445;51.270;9.434;2023-12-04T06:25:08;99434.19;;;-0.80;71.36
16664;BME280;8445;51.270;9.434;2023-12-04T06:27:35;99433.22;;;-0.79;71.12
16664;BME280;8445;51.270;9.434;2023-12-04T06:30:03;99433.44;;;-0.82;71.27
16664;BME280;8445;51.270;9.434;2023-12-04T06:32:29;99419.47;;;-0.92;71.21
16664;BME280;8445;51.270;9.434;2023-12-04T06:34:55;99428.47;;;-0.85;71.39
16664;BME280;8445;51.270;9.434;2023-12-04T06:37:22;99400.66;;;-0.97;71.44
16664;BME280;8445;51.270;9.434;2023-12-04T06:39:50;99424.91;;;-0.84;71.34
16664;BME280;8445;51.270;9.434;2023-12-04T06:42:18;99413.50;;;-0.83;71.71
16664;BME280;8445;51.270;9.434;2023-12-04T06:44:45;99409.47;;;-0.87;71.17
16664;BME280;8445;51.270;9.434;2023-12-04T06:47:22;99424.91;;;-0.84;71.73
16664;BME280;8445;51.270;9.434;2023-12-04T06:49:48;99394.47;;;-1.07;71.58
16664;BME280;8445;51.270;9.434;2023-12-04T06:52:14;99404.47;;;-0.90;71.54
16664;BME280;8445;51.270;9.434;2023-12-04T06:54:40;99422.16;;;-0.82;71.64
16664;BME280;8445;51.270;9.434;2023-12-04T06:57:06;99408.88;;;-0.91;71.38
16664;BME280;8445;51.270;9.434;2023-12-04T06:59:32;99382.13;;;-0.94;71.44
16664;BME280;8445;51.270;9.434;2023-12-04T07:01:58;99401.03;;;-0.79;71.29
16664;BME280;8445;51.270;9.434;2023-12-04T07:04:24;99394.84;;;-0.78;71.47
16664;BME280;8445;51.270;9.434;2023-12-04T07:06:49;99389.50;;;-0.77;71.58
16664;BME280;8445;51.270;9.434;2023-12-04T07:09:16;99406.13;;;-0.67;71.25
16664;BME280;8445;51.270;9.434;2023-12-04T07:11:43;99395.66;;;-0.67;71.17
16664;BME280;8445;51.270;9.434;2023-12-04T07:14:10;99381.16;;;-0.71;71.46
16664;BME280;8445;51.270;9.434;2023-12-04T07:16:43;99360.03;;;-0.79;71.15
16664;BME280;8445;51.270;9.434;2023-12-04T07:19:10;99380.81;;;-0.66;71.39
16664;BME280;8445;51.270;9.434;2023-12-04T07:21:37;99367.00;;;-0.68;71.25
16664;BME280;8445;51.270;9.434;2023-12-04T07:24:03;99384.81;;;-0.51;70.84
16664;BME280;8445;51.270;9.434;2023-12-04T07:26:33;99393.94;;;-0.45;71.41
16664;BME280;8445;51.270;9.434;2023-12-04T07:28:59;99391.19;;;-0.44;71.15
16664;BME280;8445;51.270;9.434;2023-12-04T07:31:25;99390.50;;;-0.46;71.21
16664;BME280;8445;51.270;9.434;2023-12-04T07:33:53;99397.72;;;-0.38;70.97
16664;BME280;8445;51.270;9.434;2023-12-04T07:36:20;99380.28;;;-0.49;71.07
16664;BME280;8445;51.270;9.434;2023-12-04T07:38:46;99375.63;;;-0.45;71.19
16664;BME280;8445;51.270;9.434;2023-12-04T07:41:12;99391.16;;;-0.33;70.88
16664;BME280;8445;51.270;9.434;2023-12-04T07:43:39;99371.91;;;-0.43;70.82
16664;BME280;8445;51.270;9.434;2023-12-04T07:46:05;99392.44;;;-0.27;71.11
16664;BME280;8445;51.270;9.434;2023-12-04T07:48:31;99394.97;;;-0.25;70.69
16664;BME280;8445;51.270;9.434;2023-12-04T07:50:57;99384.50;;;-0.25;70.71
16664;BME280;8445;51.270;9.434;2023-12-04T07:53:23;99367.03;;;-0.36;70.42
16664;BME280;8445;51.270;9.434;2023-12-04T07:55:49;99382.69;;;-0.25;70.17
16664;BME280;8445;51.270;9.434;2023-12-04T07:58:17;99387.56;;;-0.20;70.03
16664;BME280;8445;51.270;9.434;2023-12-04T08:00:48;99380.41;;;-0.18;70.13
16664;BME280;8445;51.270;9.434;2023-12-04T08:03:14;99372.16;;;-0.14;70.08
16664;BME280;8445;51.270;9.434;2023-12-04T08:05:39;99368.72;;;-0.14;69.81
16664;BME280;8445;51.270;9.434;2023-12-04T08:08:05;99368.38;;;-0.10;69.66
16664;BME280;8445;51.270;9.434;2023-12-04T08:10:31;99348.16;;;-0.19;69.88
16664;BME280;8445;51.270;9.434;2023-12-04T08:12:57;99368.44;;;0.00;70.07
16664;BME280;8445;51.270;9.434;2023-12-04T08:15:24;99354.75;;;-0.04;69.87
16664;BME280;8445;51.270;9.434;2023-12-04T08:17:50;99365.50;;;0.14;70.23
16664;BME280;8445;51.270;9.434;2023-12-04T08:20:16;99355.88;;;0.15;69.63
16664;BME280;8445;51.270;9.434;2023-12-04T08:22:42;99365.31;;;0.27;69.91
16664;BME280;8445;51.270;9.434;2023-12-04T08:25:11;99322.97;;;0.01;69.10
16664;BME280;8445;51.270;9.434;2023-12-04T08:27:37;99353.22;;;0.36;69.36
16664;BME280;8445;51.270;9.434;2023-12-04T08:30:05;99358.34;;;0.37;68.90
16664;BME280;8445;51.270;9.434;2023-12-04T08:32:31;99361.84;;;0.47;68.64
16664;BME280;8445;51.270;9.434;2023-12-04T08:34:59;99358.00;;;0.51;68.89
16664;BME280;8445;51.270;9.434;2023-12-04T08:37:25;99365.34;;;0.57;69.01
16664;BME280;8445;51.270;9.434;2023-12-04T08:39:51;99368.41;;;0.63;69.06
16664;BME280;8445;51.270;9.434;2023-12-04T08:42:17;99361.69;;;0.70;68.67
16664;BME280;8445;51.270;9.434;2023-12-04T08:44:44;99347.91;;;0.68;68.28
16664;BME280;8445;51.270;9.434;2023-12-04T08:47:11;99331.03;;;0.61;68.54
16664;BME280;8445;51.270;9.434;2023-12-04T08:49:37;99340.31;;;0.74;68.86
16664;BME280;8445;51.270;9.434;2023-12-04T08:52:07;99329.69;;;0.76;68.84
16664;BME280;8445;51.270;9.434;2023-12-04T08:54:33;99353.25;;;0.97;68.54
16664;BME280;8445;51.270;9.434;2023-12-04T08:56:59;99353.81;;;1.00;68.72
16664;BME280;8445;51.270;9.434;2023-12-04T08:59:26;99336.00;;;1.04;68.27
16664;BME280;8445;51.270;9.434;2023-12-04T09:01:52;99353.00;;;1.09;67.24
16664;BME280;8445;51.270;9.434;2023-12-04T09:04:18;99332.00;;;1.00;67.41
16664;BME280;8445;51.270;9.434;2023-12-04T09:06:43;99343.91;;;1.13;67.79
16664;BME280;8445;51.270;9.434;2023-12-04T09:09:09;99344.19;;;1.20;67.54
16664;BME280;8445;51.270;9.434;2023-12-04T09:11:41;99340.63;;;1.21;67.10
16664;BME280;8445;51.270;9.434;2023-12-04T09:14:08;99338.41;;;1.26;66.79
16664;BME280;8445;51.270;9.434;2023-12-04T09:16:34;99321.44;;;1.21;66.66
16664;BME280;8445;51.270;9.434;2023-12-04T09:19:00;99338.44;;;1.36;67.10
16664;BME280;8445;51.270;9.434;2023-12-04T09:21:26;99302.50;;;1.27;67.21
16664;BME280;8445;51.270;9.434;2023-12-04T09:23:52;99318.81;;;1.40;67.32
16664;BME280;8445;51.270;9.434;2023-12-04T09:26:19;99316.34;;;1.48;66.96
16664;BME280;8445;51.270;9.434;2023-12-04T09:28:45;99316.63;;;1.55;67.08
16664;BME280;8445;51.270;9.434;2023-12-04T09:31:12;99307.09;;;1.63;66.77
16664;BME280;8445;51.270;9.434;2023-12-04T09:33:37;99292.31;;;1.62;66.89
16664;BME280;8445;51.270;9.434;2023-12-04T09:36:04;99290.25;;;1.75;66.49
16664;BME280;8445;51.270;9.434;2023-12-04T09:38:29;99280.81;;;1.83;66.67
16664;BME280;8445;51.270;9.434;2023-12-04T09:40:59;99308.31;;;1.98;66.78
16664;BME280;8445;51.270;9.434;2023-12-04T09:43:32;99298.91;;;2.05;66.31
16664;BME280;8445;51.270;9.434;2023-12-04T09:45:59;99297.94;;;2.06;65.34
16664;BME280;8445;51.270;9.434;2023-12-04T09:48:26;99298.31;;;2.11;65.98
16664;BME280;8445;51.270;9.434;2023-12-04T09:50:53;99302.47;;;2.14;66.32
16664;BME280;8445;51.270;9.434;2023-12-04T09:53:21;99275.28;;;2.05;65.48
16664;BME280;8445;51.270;9.434;2023-12-04T09:55:49;99265.19;;;2.00;65.44
16664;BME280;8445;51.270;9.434;2023-12-04T09:58:19;99272.66;;;2.05;65.30
16664;BME280;8445;51.270;9.434;2023-12-04T10:00:47;99279.69;;;2.14;65.41
16664;BME280;8445;51.270;9.434;2023-12-04T10:03:14;99291.56;;;2.18;65.02
16664;BME280;8445;51.270;9.434;2023-12-04T10:05:44;99274.13;;;2.17;64.52
16664;BME280;8445;51.270;9.434;2023-12-04T10:08:13;99250.66;;;2.06;64.22
16664;BME280;8445;51.270;9.434;2023-12-04T10:10:39;99240.59;;;2.01;63.92
16664;BME280;8445;51.270;9.434;2023-12-04T10:13:05;99247.75;;;2.09;64.01
16664;BME280;8445;51.270;9.434;2023-12-04T10:15:32;99252.81;;;2.20;64.26
16664;BME280;8445;51.270;9.434;2023-12-04T10:17:58;99253.63;;;2.30;64.07
16664;BME280;8445;51.270;9.434;2023-12-04T10:20:24;99241.03;;;2.34;63.72
16664;BME280;8445;51.270;9.434;2023-12-04T10:22:58;99237.94;;;2.38;63.75
16664;BME280;8445;51.270;9.434;2023-12-04T10:25:27;99212.50;;;2.39;64.02
16664;BME280;8445;51.270;9.434;2023-12-04T10:28:11;99217.97;;;2.55;63.63
16664;BME280;8445;51.270;9.434;2023-12-04T10:30:38;99209.88;;;2.66;63.95
16664;BME280;8445;51.270;9.434;2023-12-04T10:33:06;99219.47;;;2.85;64.14
16664;BME280;8445;51.270;9.434;2023-12-04T10:35:35;99188.06;;;2.84;64.08
16664;BME280;8445;51.270;9.434;2023-12-04T10:38:03;99173.41;;;2.99;63.48
16664;BME280;8445;51.270;9.434;2023-12-04T10:40:31;99205.06;;;3.25;63.63
16664;BME280;8445;51.270;9.434;2023-12-04T10:43:12;99171.50;;;3.27;63.36
16664;BME280;8445;51.270;9.434;2023-12-04T10:45:40;99157.06;;;3.31;62.86
16664;BME280;8445;51.270;9.434;2023-12-04T10:48:07;99162.16;;;3.33;63.17
16664;BME280;8445;51.270;9.434;2023-12-04T10:50:35;99166.19;;;3.37;62.89
16664;BME280;8445;51.270;9.434;2023-12-04T10:53:05;99172.78;;;3.41;60.95
16664;BME280;8445;51.270;9.434;2023-12-04T10:55:31;99162.72;;;3.36;61.71
16664;BME280;8445;51.270;9.434;2023-12-04T10:58:01;99159.41;;;3.34;62.05
16664;BME280;8445;51.270;9.434;2023-12-04T11:00:32;99151.81;;;3.31;62.24
16664;BME280;8445;51.270;9.434;2023-12-04T11:03:10;99155.25;;;3.32;61.53
16664;BME280;8445;51.270;9.434;2023-12-04T11:05:43;99143.91;;;3.31;61.29
16664;BME280;8445;51.270;9.434;2023-12-04T11:08:15;99125.44;;;3.23;61.16
16664;BME280;8445;51.270;9.434;2023-12-04T11:13:29;99120.09;;;3.15;61.48
16664;BME280;8445;51.270;9.434;2023-12-04T11:19:29;99122.81;;;3.23;61.19
16664;BME280;8445;51.270;9.434;2023-12-04T11:21:58;99120.47;;;3.20;61.18
16664;BME280;8445;51.270;9.434;2023-12-04T11:24:25;99097.41;;;3.14;61.05
16664;BME280;8445;51.270;9.434;2023-12-04T11:26:52;99110.31;;;3.25;60.56
16664;BME280;8445;51.270;9.434;2023-12-04T11:29:19;99104.38;;;3.23;60.49
16664;BME280;8445;51.270;9.434;2023-12-04T11:31:46;99082.50;;;3.22;60.20
16664;BME280;8445;51.270;9.434;2023-12-04T11:34:12;99061.63;;;3.21;60.04
16664;BME280;8445;51.270;9.434;2023-12-04T11:36:39;99089.13;;;3.52;59.91
16664;BME280;8445;51.270;9.434;2023-12-04T11:39:10;99079.91;;;3.56;60.29
16664;BME280;8445;51.270;9.434;2023-12-04T11:41:36;99073.06;;;3.64;60.39
16664;BME280;8445;51.270;9.434;2023-12-04T11:44:12;99074.22;;;3.69;60.15
16664;BME280;8445;51.270;9.434;2023-12-04T11:47:05;99050.19;;;3.64;60.25
16664;BME280;8445;51.270;9.434;2023-12-04T11:49:32;99064.91;;;3.83;60.63
16664;BME280;8445;51.270;9.434;2023-12-04T11:52:00;99046.47;;;3.83;59.99
16664;BME280;8445;51.270;9.434;2023-12-04T11:54:28;99058.41;;;4.03;59.84
16664;BME280;8445;51.270;9.434;2023-12-04T11:57:19;99058.13;;;4.14;59.81
16664;BME280;8445;51.270;9.434;2023-12-04T12:02:40;99030.78;;;4.15;59.75
16664;BME280;8445;51.270;9.434;2023-12-04T12:05:08;99051.56;;;4.35;59.77
16664;BME280;8445;51.270;9.434;2023-12-04T12:07:34;99027.00;;;4.26;58.94
16664;BME280;8445;51.270;9.434;2023-12-04T12:10:00;99020.06;;;4.17;58.54
16664;BME280;8445;51.270;9.434;2023-12-04T12:12:27;98999.78;;;4.09;58.32
16664;BME280;8445;51.270;9.434;2023-12-04T12:14:53;99025.34;;;4.25;58.85
16664;BME280;8445;51.270;9.434;2023-12-04T12:17:19;98995.00;;;4.13;59.20
16664;BME280;8445;51.270;9.434;2023-12-04T12:19:45;99008.72;;;4.25;58.86
16664;BME280;8445;51.270;9.434;2023-12-04T12:22:11;99000.50;;;4.28;57.87
16664;BME280;8445;51.270;9.434;2023-12-04T12:24:37;99025.53;;;4.40;58.04
16664;BME280;8445;51.270;9.434;2023-12-04T12:27:04;99009.25;;;4.44;58.89
16664;BME280;8445;51.270;9.434;2023-12-04T12:29:30;98997.34;;;4.40;58.66
16664;BME280;8445;51.270;9.434;2023-12-04T12:31:56;98998.38;;;4.48;57.95
16664;BME280;8445;51.270;9.434;2023-12-04T12:34:25;98998.03;;;4.51;58.08
16664;BME280;8445;51.270;9.434;2023-12-04T12:36:52;99002.16;;;4.53;59.06
16664;BME280;8445;51.270;9.434;2023-12-04T12:39:18;98974.63;;;4.39;58.23
16664;BME280;8445;51.270;9.434;2023-12-04T12:41:51;98970.16;;;4.40;58.34
16664;BME280;8445;51.270;9.434;2023-12-04T12:44:17;98963.44;;;4.29;57.96
16664;BME280;8445;51.270;9.434;2023-12-04T12:46:48;98981.53;;;4.40;58.26
16664;BME280;8445;51.270;9.434;2023-12-04T12:49:18;98978.59;;;4.35;57.61
16664;BME280;8445;51.270;9.434;2023-12-04T12:51:46;98943.97;;;4.14;58.75
16664;BME280;8445;51.270;9.434;2023-12-04T12:54:12;98948.09;;;4.17;58.68
16664;BME280;8445;51.270;9.434;2023-12-04T12:56:39;98969.69;;;4.28;58.18
16664;BME280;8445;51.270;9.434;2023-12-04T12:59:05;98929.59;;;4.00;58.60
16664;BME280;8445;51.270;9.434;2023-12-04T13:01:37;98959.63;;;4.24;58.26
16664;BME280;8445;51.270;9.434;2023-12-04T13:04:05;98966.88;;;4.22;58.35
16664;BME280;8445;51.270;9.434;2023-12-04T13:06:31;98936.38;;;4.03;57.94
16664;BME280;8445;51.270;9.434;2023-12-04T13:08:57;98940.16;;;4.00;58.72
16664;BME280;8445;51.270;9.434;2023-12-04T13:11:25;98943.78;;;3.99;58.70
16664;BME280;8445;51.270;9.434;2023-12-04T13:13:51;98928.13;;;3.90;58.83
16664;BME280;8445;51.270;9.434;2023-12-04T13:16:16;98917.25;;;3.84;58.35
16664;BME280;8445;51.270;9.434;2023-12-04T13:18:42;98938.16;;;3.94;58.31
16664;BME280;8445;51.270;9.434;2023-12-04T13:21:08;98928.94;;;3.82;58.73
16664;BME280;8445;51.270;9.434;2023-12-04T13:23:36;98924.00;;;3.79;59.01